createdAt,value
2022-11-15T00:00:04.836Z,14.50
2022-11-15T00:02:52.241Z,16.00
2022-11-15T00:05:40.189Z,16.00
2022-11-15T00:08:27.583Z,15.25
2022-11-15T00:11:15.278Z,13.25
2022-11-15T00:14:04.619Z,12.25
2022-11-15T00:16:52.643Z,16.25
2022-11-15T00:19:41.311Z,13.25
2022-11-15T00:22:34.296Z,16.00
2022-11-15T00:25:21.692Z,16.50
2022-11-15T00:28:09.493Z,17.00
2022-11-15T00:30:58.182Z,15.50
2022-11-15T00:33:47.546Z,14.50
2022-11-15T00:36:38.000Z,14.75
2022-11-15T00:39:26.414Z,13.50
2022-11-15T00:42:17.239Z,16.00
2022-11-15T00:45:05.797Z,15.75
2022-11-15T00:47:53.647Z,17.25
2022-11-15T00:50:42.187Z,15.25
2022-11-15T00:53:30.217Z,17.25
2022-11-15T00:56:18.179Z,15.50
2022-11-15T00:59:05.617Z,13.25
2022-11-15T01:01:54.446Z,14.50
2022-11-15T01:04:41.909Z,18.75
2022-11-15T01:07:29.523Z,17.00
2022-11-15T01:10:18.506Z,19.50
2022-11-15T01:13:06.107Z,15.25
2022-11-15T01:15:53.644Z,20.00
2022-11-15T01:18:42.082Z,18.25
2022-11-15T01:21:29.659Z,16.25
2022-11-15T01:24:17.395Z,16.00
2022-11-15T01:27:04.800Z,18.25
2022-11-15T01:29:52.471Z,22.00
2022-11-15T01:32:40.221Z,22.75
2022-11-15T01:35:27.937Z,23.00
2022-11-15T01:38:15.341Z,21.75
2022-11-15T01:41:03.314Z,21.00
2022-11-15T01:44:19.679Z,21.75
2022-11-15T01:47:11.992Z,20.75
2022-11-15T01:50:09.466Z,21.75
2022-11-15T01:52:58.209Z,21.00
2022-11-15T01:55:46.228Z,21.75
2022-11-15T01:58:34.521Z,19.75
2022-11-15T02:01:22.533Z,21.75
2022-11-15T02:04:15.432Z,22.50
2022-11-15T02:07:04.690Z,22.00
2022-11-15T02:09:53.563Z,20.00
2022-11-15T02:12:41.091Z,19.75
2022-11-15T02:15:31.691Z,20.50
2022-11-15T02:18:29.478Z,18.50
2022-11-15T02:21:32.358Z,18.50
2022-11-15T02:24:32.519Z,19.75
2022-11-15T02:27:22.777Z,20.00
2022-11-15T02:30:24.729Z,19.75
2022-11-15T02:33:21.184Z,18.75
2022-11-15T02:36:11.654Z,16.00
2022-11-15T02:39:01.754Z,17.75
2022-11-15T02:41:54.465Z,18.25
2022-11-15T02:44:46.310Z,19.50
2022-11-15T02:47:37.566Z,19.25
2022-11-15T02:50:28.143Z,16.75
2022-11-15T02:53:18.519Z,17.50
2022-11-15T02:56:05.933Z,18.75
2022-11-15T02:59:09.073Z,16.50
2022-11-15T03:01:57.243Z,17.75
2022-11-15T03:04:48.059Z,15.75
2022-11-15T03:07:40.570Z,16.00
2022-11-15T03:10:38.954Z,14.25
2022-11-15T03:13:33.991Z,13.75
2022-11-15T03:16:36.922Z,13.50
2022-11-15T03:19:24.477Z,16.25
2022-11-15T03:22:14.440Z,14.75
2022-11-15T03:25:05.092Z,13.75
2022-11-15T03:27:57.681Z,14.50
2022-11-15T03:30:48.077Z,15.00
2022-11-15T03:33:35.594Z,13.25
2022-11-15T03:36:24.898Z,11.00
2022-11-15T03:39:16.273Z,13.75
2022-11-15T03:42:10.004Z,13.25
2022-11-15T03:45:16.547Z,13.50
2022-11-15T03:48:03.783Z,12.50
2022-11-15T03:50:51.657Z,14.25
2022-11-15T03:53:38.912Z,11.25
2022-11-15T03:56:25.933Z,11.00
2022-11-15T03:59:13.465Z,13.50
2022-11-15T04:02:01.659Z,11.25
2022-11-15T04:04:48.880Z,12.75
2022-11-15T04:07:38.210Z,12.75
2022-11-15T04:10:26.244Z,11.75
2022-11-15T04:13:13.907Z,10.75
2022-11-15T04:16:01.136Z,11.25
2022-11-15T04:19:09.110Z,12.25
2022-11-15T04:22:14.433Z,14.00
2022-11-15T04:25:02.281Z,13.00
2022-11-15T04:27:49.769Z,13.00
2022-11-15T04:30:37.818Z,11.00
2022-11-15T04:33:25.388Z,11.50
2022-11-15T04:36:31.148Z,11.50
2022-11-15T04:39:18.945Z,9.00
2022-11-15T04:42:06.848Z,8.50
2022-11-15T04:44:54.993Z,10.00
2022-11-15T04:47:42.261Z,10.00
2022-11-15T04:50:30.469Z,8.50
2022-11-15T04:53:18.325Z,8.25
2022-11-15T04:56:06.927Z,8.50
2022-11-15T04:58:55.058Z,7.25
2022-11-15T05:01:45.023Z,9.00
2022-11-15T05:04:33.355Z,8.00
2022-11-15T05:07:21.027Z,8.00
2022-11-15T05:10:10.275Z,6.75
2022-11-15T05:12:57.675Z,7.00
2022-11-15T05:15:46.036Z,6.25
2022-11-15T05:18:34.900Z,5.75
2022-11-15T05:21:23.410Z,6.25
2022-11-15T05:24:13.724Z,5.00
2022-11-15T05:27:01.445Z,3.50
2022-11-15T05:29:48.999Z,4.00
2022-11-15T05:32:39.563Z,4.25
2022-11-15T05:35:36.925Z,5.75
2022-11-15T05:38:26.010Z,2.00
2022-11-15T05:41:14.562Z,4.25
2022-11-15T05:44:04.581Z,2.75
2022-11-15T05:46:53.551Z,3.25
2022-11-15T05:49:43.349Z,2.25
2022-11-15T05:52:32.220Z,3.75
2022-11-15T05:55:20.752Z,4.00
2022-11-15T05:58:11.593Z,3.00
2022-11-15T06:00:59.669Z,2.50
2022-11-15T06:03:51.068Z,3.25
2022-11-15T06:06:40.450Z,2.25
2022-11-15T06:09:28.032Z,3.00
2022-11-15T06:12:16.127Z,3.25
2022-11-15T06:15:03.339Z,3.25
2022-11-15T06:17:50.840Z,2.25
2022-11-15T06:20:38.537Z,3.75
2022-11-15T06:23:26.416Z,3.75
2022-11-15T06:26:14.059Z,1.50
2022-11-15T06:29:01.906Z,3.25
2022-11-15T06:31:49.150Z,2.50
2022-11-15T06:34:38.183Z,2.25
2022-11-15T06:37:25.634Z,3.25
2022-11-15T06:40:13.847Z,3.00
2022-11-15T06:43:01.821Z,4.00
2022-11-15T06:45:49.965Z,3.00
2022-11-15T06:48:38.517Z,3.75
2022-11-15T06:51:26.115Z,3.75
2022-11-15T06:54:13.970Z,3.00
2022-11-15T06:57:01.820Z,2.50
2022-11-15T06:59:49.234Z,3.00
2022-11-15T07:02:38.191Z,2.25
2022-11-15T07:05:25.546Z,3.00
2022-11-15T07:08:13.989Z,3.75
2022-11-15T07:11:02.778Z,3.00
2022-11-15T07:13:50.530Z,3.00
2022-11-15T07:16:39.037Z,2.50
2022-11-15T07:19:26.873Z,4.75
2022-11-15T07:22:14.615Z,3.00
2022-11-15T07:25:03.271Z,3.50
2022-11-15T07:27:57.475Z,3.00
2022-11-15T07:30:45.607Z,3.00
2022-11-15T07:33:33.291Z,3.25
2022-11-15T07:36:21.300Z,2.75
2022-11-15T07:39:08.759Z,3.75
2022-11-15T07:42:16.310Z,2.00
2022-11-15T07:45:04.506Z,2.50
2022-11-15T07:47:53.974Z,3.00
2022-11-15T07:50:44.845Z,3.75
2022-11-15T07:53:32.868Z,2.00
2022-11-15T07:56:20.445Z,3.75
2022-11-15T07:59:08.013Z,2.00
2022-11-15T08:01:55.640Z,4.00
2022-11-15T08:04:43.554Z,2.00
2022-11-15T08:07:32.655Z,2.75
2022-11-15T08:10:22.298Z,3.25
2022-11-15T08:13:12.306Z,2.25
2022-11-15T08:16:04.330Z,2.00
2022-11-15T08:18:51.921Z,2.75
2022-11-15T08:21:39.737Z,2.75
2022-11-15T08:24:28.356Z,3.00
2022-11-15T08:27:19.047Z,2.00
2022-11-15T08:30:06.886Z,2.00
2022-11-15T08:32:55.421Z,3.00
2022-11-15T08:35:43.894Z,2.00
2022-11-15T08:38:32.796Z,3.50
2022-11-15T08:41:27.862Z,3.00
2022-11-15T08:44:15.811Z,3.50
2022-11-15T08:47:03.122Z,1.75
2022-11-15T08:49:51.350Z,3.00
2022-11-15T08:52:38.806Z,2.00
2022-11-15T08:55:26.883Z,2.00
2022-11-15T08:58:14.118Z,3.00
2022-11-15T09:01:02.258Z,2.00
2022-11-15T09:03:50.133Z,3.00
2022-11-15T09:06:42.125Z,2.50
2022-11-15T09:09:30.403Z,2.00
2022-11-15T09:12:18.249Z,2.00
2022-11-15T09:15:07.300Z,4.00
2022-11-15T09:17:55.496Z,3.00
2022-11-15T09:20:43.147Z,4.00
2022-11-15T09:23:31.835Z,2.00
2022-11-15T09:26:19.297Z,2.00
2022-11-15T09:29:08.070Z,2.00
2022-11-15T09:31:56.974Z,3.50
2022-11-15T09:34:45.175Z,3.00
2022-11-15T09:37:34.475Z,5.00
2022-11-15T09:40:24.931Z,14.75
2022-11-15T09:43:30.809Z,10.00
2022-11-15T09:46:24.296Z,11.00
2022-11-15T09:49:16.923Z,25.75
2022-11-15T09:52:07.245Z,17.25
2022-11-15T09:54:52.691Z,18.25
2022-11-15T09:57:44.059Z,17.00
2022-11-15T10:03:20.787Z,15.25
2022-11-15T10:05:52.391Z,16.25
2022-11-15T10:08:31.330Z,15.50
2022-11-15T10:13:51.917Z,13.00
2022-11-15T10:16:44.087Z,12.25
2022-11-15T10:19:16.429Z,15.00
2022-11-15T10:22:00.866Z,13.00
2022-11-15T10:24:31.601Z,13.25
2022-11-15T10:27:00.909Z,11.50
2022-11-15T10:29:30.202Z,12.50
2022-11-15T10:31:59.518Z,13.00
2022-11-15T10:34:29.072Z,12.25
2022-11-15T10:37:00.528Z,15.50
2022-11-15T10:39:33.555Z,18.25
2022-11-15T10:42:25.883Z,15.25
2022-11-15T10:44:55.692Z,12.50
2022-11-15T10:47:39.023Z,16.50
2022-11-15T10:50:27.187Z,15.75
2022-11-15T10:52:56.614Z,14.50
2022-11-15T10:55:28.333Z,11.50
2022-11-15T10:58:03.442Z,10.50
2022-11-15T11:00:35.048Z,14.00
2022-11-15T11:03:05.935Z,12.50
2022-11-15T11:05:41.794Z,11.75
2022-11-15T11:08:14.994Z,12.00
2022-11-15T11:11:11.034Z,11.25
2022-11-15T11:13:41.778Z,12.25
2022-11-15T11:16:11.059Z,13.75
2022-11-15T11:18:49.232Z,13.75
2022-11-15T11:21:39.589Z,15.25
2022-11-15T11:24:15.279Z,15.75
2022-11-15T11:27:02.976Z,13.75
2022-11-15T11:29:48.068Z,14.00
2022-11-15T11:32:20.504Z,12.00
2022-11-15T11:35:09.052Z,10.00
2022-11-15T11:37:39.376Z,12.50
2022-11-15T11:40:11.588Z,9.25
2022-11-15T11:42:41.653Z,10.00
2022-11-15T11:45:17.775Z,9.25
2022-11-15T11:47:54.254Z,9.25
2022-11-15T11:50:30.279Z,9.50
2022-11-15T11:53:04.147Z,10.50
2022-11-15T11:55:50.994Z,12.75
2022-11-15T11:58:23.636Z,11.50
2022-11-15T12:00:55.305Z,12.75
2022-11-15T12:03:29.626Z,11.00
2022-11-15T12:06:09.451Z,10.75
2022-11-15T12:08:46.636Z,10.25
2022-11-15T12:11:28.788Z,10.75
2022-11-15T12:14:03.004Z,10.00
2022-11-15T12:16:34.742Z,12.25
2022-11-15T12:19:05.936Z,13.25
2022-11-15T12:21:39.678Z,11.25
2022-11-15T12:24:19.380Z,14.00
2022-11-15T12:27:07.879Z,15.50
2022-11-15T12:29:44.857Z,13.75
2022-11-15T12:32:22.202Z,15.50
2022-11-15T12:34:52.453Z,14.00
2022-11-15T12:37:46.890Z,16.50
2022-11-15T12:40:24.706Z,15.00
2022-11-15T12:43:17.426Z,19.50
2022-11-15T12:45:48.476Z,18.75
2022-11-15T12:48:21.574Z,21.25
2022-11-15T12:50:57.522Z,19.75
2022-11-15T12:53:27.895Z,22.00
2022-11-15T12:56:06.893Z,21.75
2022-11-15T12:58:57.110Z,21.50
2022-11-15T13:01:38.549Z,22.00
2022-11-15T13:04:17.157Z,24.00
2022-11-15T13:06:54.394Z,23.00
2022-11-15T13:09:33.301Z,22.75
2022-11-15T13:12:07.009Z,22.75
2022-11-15T13:14:51.999Z,23.50
2022-11-15T13:17:21.780Z,23.75
2022-11-15T13:19:56.148Z,23.50
2022-11-15T13:22:43.538Z,24.25
2022-11-15T13:25:21.854Z,24.50
2022-11-15T13:27:52.784Z,26.75
2022-11-15T13:30:25.224Z,26.00
2022-11-15T13:32:56.637Z,25.50
2022-11-15T13:35:30.574Z,27.50
2022-11-15T13:38:06.211Z,26.00
2022-11-15T13:40:39.866Z,28.00
2022-11-15T13:43:35.386Z,26.50
2022-11-15T13:46:20.075Z,27.50
2022-11-15T13:48:54.316Z,27.00
2022-11-15T13:51:33.203Z,27.00
2022-11-15T13:54:17.796Z,26.00
2022-11-15T13:56:50.613Z,27.25
2022-11-15T13:59:40.282Z,27.00
2022-11-15T14:02:17.837Z,27.75
2022-11-15T14:05:19.412Z,29.00
2022-11-15T14:08:24.413Z,27.50
2022-11-15T14:11:09.356Z,27.50
2022-11-15T14:13:39.136Z,28.00
2022-11-15T14:16:18.172Z,28.00
2022-11-15T14:18:57.076Z,27.00
2022-11-15T14:21:27.477Z,27.00
2022-11-15T14:24:16.848Z,26.50
2022-11-15T14:26:46.762Z,29.75
2022-11-15T14:29:30.019Z,28.00
2022-11-15T14:32:17.631Z,27.00
2022-11-15T14:34:47.592Z,26.25
2022-11-15T14:37:28.928Z,27.50
2022-11-15T14:39:58.824Z,28.00
2022-11-15T14:42:28.702Z,28.00
2022-11-15T14:44:58.561Z,30.00
2022-11-15T14:47:29.998Z,27.00
2022-11-15T14:49:59.708Z,28.00
2022-11-15T14:52:33.085Z,26.50
2022-11-15T14:55:04.679Z,27.50
2022-11-15T14:57:34.353Z,27.25
2022-11-15T15:00:04.728Z,27.00
2022-11-15T15:02:44.391Z,29.00
2022-11-15T15:05:24.330Z,26.75
2022-11-15T15:07:59.771Z,27.50
2022-11-15T15:10:40.066Z,28.00
2022-11-15T15:13:20.179Z,27.75
2022-11-15T15:15:50.553Z,28.00
2022-11-15T15:18:21.229Z,27.50
2022-11-15T15:20:55.244Z,27.25
2022-11-15T15:23:26.540Z,27.25
2022-11-15T15:25:56.353Z,27.50
2022-11-15T15:28:28.708Z,27.00
2022-11-15T15:31:02.851Z,28.00
2022-11-15T15:33:32.642Z,29.50
2022-11-15T15:36:02.595Z,27.50
2022-11-15T15:38:32.431Z,28.25
2022-11-15T15:41:04.309Z,28.00
2022-11-15T15:43:34.150Z,29.25
2022-11-15T15:46:03.948Z,27.50
2022-11-15T15:48:35.997Z,28.50
2022-11-15T15:51:12.116Z,28.00
2022-11-15T15:53:45.381Z,28.75
2022-11-15T15:56:15.185Z,27.50
2022-11-15T15:58:45.007Z,28.25
2022-11-15T16:01:14.722Z,29.25
2022-11-15T16:03:44.548Z,28.25
2022-11-15T16:06:34.261Z,27.50
2022-11-15T16:09:19.749Z,28.75
2022-11-15T16:11:50.170Z,28.00
2022-11-15T16:14:19.915Z,30.75
2022-11-15T16:16:49.712Z,30.50
2022-11-15T16:19:19.558Z,27.50
2022-11-15T16:21:49.336Z,29.75
2022-11-15T16:24:19.098Z,28.00
2022-11-15T16:26:49.788Z,28.50
2022-11-15T16:29:19.489Z,27.25
2022-11-15T16:31:48.986Z,28.50
2022-11-15T16:34:18.493Z,27.75
2022-11-15T16:36:48.113Z,26.25
2022-11-15T16:39:20.830Z,28.00
2022-11-15T16:41:50.256Z,27.50
2022-11-15T16:44:19.700Z,27.75
2022-11-15T16:46:53.189Z,26.50
2022-11-15T16:49:23.499Z,27.50
2022-11-15T16:51:53.265Z,27.50
2022-11-15T16:54:22.611Z,27.50
2022-11-15T16:56:51.952Z,26.25
2022-11-15T16:59:22.203Z,27.50
2022-11-15T17:01:54.179Z,27.25
2022-11-15T17:04:24.067Z,26.75
2022-11-15T17:06:53.483Z,27.00
2022-11-15T17:09:27.104Z,26.75
2022-11-15T17:11:56.672Z,26.25
2022-11-15T17:14:25.901Z,27.00
2022-11-15T17:16:57.754Z,25.50
2022-11-15T17:19:27.248Z,27.50
2022-11-15T17:21:56.496Z,27.75
2022-11-15T17:24:25.718Z,25.50
2022-11-15T17:26:54.992Z,23.75
2022-11-15T17:29:24.310Z,24.00
2022-11-15T17:31:53.642Z,25.00
2022-11-15T17:34:22.905Z,24.75
2022-11-15T17:36:52.281Z,23.50
2022-11-15T17:39:22.099Z,24.50
2022-11-15T17:41:51.530Z,24.50
2022-11-15T17:44:20.814Z,22.50
2022-11-15T17:46:50.128Z,23.25
2022-11-15T17:49:19.372Z,24.25
2022-11-15T17:51:50.133Z,22.75
2022-11-15T17:54:19.897Z,21.50
2022-11-15T17:56:49.077Z,22.50
2022-11-15T17:59:21.391Z,22.50
2022-11-15T18:01:51.272Z,22.50
2022-11-15T18:04:20.527Z,22.50
2022-11-15T18:06:49.764Z,22.00
2022-11-15T18:09:19.542Z,21.50
2022-11-15T18:11:52.603Z,26.00
2022-11-15T18:14:22.349Z,21.75
2022-11-15T18:16:51.646Z,21.75
2022-11-15T18:19:20.856Z,21.50
2022-11-15T18:21:59.270Z,22.00
2022-11-15T18:24:30.541Z,21.50
2022-11-15T18:27:01.126Z,21.00
2022-11-15T18:29:30.675Z,22.25
2022-11-15T18:32:00.219Z,21.50
2022-11-15T18:34:33.228Z,20.00
2022-11-15T18:37:03.960Z,20.00
2022-11-15T18:39:33.354Z,20.75
2022-11-15T18:42:03.009Z,19.75
2022-11-15T18:44:32.465Z,19.50
2022-11-15T18:47:01.734Z,21.75
2022-11-15T18:49:31.142Z,20.25
2022-11-15T18:52:00.431Z,19.75
2022-11-15T18:54:31.225Z,21.00
2022-11-15T18:57:01.324Z,20.50
2022-11-15T18:59:31.322Z,20.25
2022-11-15T19:02:00.501Z,19.25
2022-11-15T19:04:29.808Z,19.25
2022-11-15T19:06:59.049Z,19.25
2022-11-15T19:09:33.880Z,17.00
2022-11-15T19:12:03.096Z,17.00
2022-11-15T19:14:32.364Z,15.25
2022-11-15T19:17:01.586Z,18.25
2022-11-15T19:19:30.870Z,19.00
2022-11-15T19:22:00.189Z,19.50
2022-11-15T19:24:31.172Z,16.25
2022-11-15T19:27:00.445Z,15.00
2022-11-15T19:29:29.773Z,16.75
2022-11-15T19:31:59.025Z,17.50
2022-11-15T19:34:28.299Z,18.25
2022-11-15T19:36:57.619Z,16.25
2022-11-15T19:39:26.834Z,16.75
2022-11-15T19:41:56.118Z,15.75
2022-11-15T19:44:27.532Z,12.75
2022-11-15T19:46:56.945Z,15.25
2022-11-15T19:49:26.188Z,14.25
2022-11-15T19:51:55.455Z,17.50
2022-11-15T19:54:24.666Z,14.75
2022-11-15T19:56:53.994Z,14.25
2022-11-15T19:59:23.290Z,14.25
2022-11-15T20:01:52.632Z,14.25
2022-11-15T20:04:21.913Z,14.50
2022-11-15T20:06:51.216Z,14.50
2022-11-15T20:09:21.715Z,14.75
2022-11-15T20:11:51.192Z,12.50
2022-11-15T20:14:20.630Z,14.25
2022-11-15T20:16:54.060Z,13.00
2022-11-15T20:19:23.956Z,14.00
2022-11-15T20:21:53.185Z,13.75
2022-11-15T20:24:22.398Z,12.00
2022-11-15T20:26:51.724Z,11.00
2022-11-15T20:29:21.023Z,13.00
2022-11-15T20:31:50.255Z,11.25
2022-11-15T20:34:19.527Z,12.50
2022-11-15T20:36:48.902Z,12.00
2022-11-15T20:39:18.304Z,13.00
2022-11-15T20:41:47.657Z,11.50
2022-11-15T20:44:17.139Z,11.25
2022-11-15T20:46:46.423Z,13.50
2022-11-15T20:49:15.883Z,11.50
2022-11-15T20:51:45.136Z,10.50
2022-11-15T20:54:14.463Z,10.25
2022-11-15T20:56:43.827Z,10.50
2022-11-15T20:59:13.144Z,11.75
2022-11-15T21:01:42.459Z,10.00
2022-11-15T21:04:11.749Z,10.25
2022-11-15T21:06:44.719Z,12.25
2022-11-15T21:09:34.819Z,11.00
2022-11-15T21:12:13.386Z,11.25
2022-11-15T21:14:43.254Z,10.25
2022-11-15T21:17:12.829Z,10.25
2022-11-15T21:19:42.211Z,9.00
2022-11-15T21:22:14.052Z,9.25
2022-11-15T21:24:43.544Z,8.00
2022-11-15T21:27:12.817Z,8.50
2022-11-15T21:29:42.340Z,7.75
2022-11-15T21:32:11.975Z,9.50
2022-11-15T21:34:41.325Z,10.25
2022-11-15T21:37:12.275Z,9.25
2022-11-15T21:39:41.590Z,6.25
2022-11-15T21:42:10.873Z,7.75
2022-11-15T21:44:40.122Z,9.00
2022-11-15T21:47:09.342Z,9.00
2022-11-15T21:49:38.592Z,8.00
2022-11-15T21:52:07.878Z,8.00
2022-11-15T21:54:37.201Z,8.00
2022-11-15T21:57:06.529Z,8.50
2022-11-15T21:59:35.749Z,7.00
2022-11-15T22:02:16.717Z,7.75
2022-11-15T22:04:45.950Z,8.00
2022-11-15T22:07:15.352Z,9.75
2022-11-15T22:09:44.680Z,7.75
2022-11-15T22:12:14.042Z,8.25
2022-11-15T22:14:43.439Z,8.50
2022-11-15T22:17:13.014Z,7.75
2022-11-15T22:19:52.278Z,8.75
2022-11-15T22:22:22.750Z,9.00
2022-11-15T22:24:52.004Z,10.00
2022-11-15T22:27:21.234Z,10.75
2022-11-15T22:29:50.464Z,8.00
2022-11-15T22:32:19.777Z,8.75
2022-11-15T22:34:49.021Z,7.25
2022-11-15T22:37:20.899Z,8.00
2022-11-15T22:39:51.189Z,11.00
2022-11-15T22:42:23.759Z,8.75
2022-11-15T22:44:53.873Z,9.00
2022-11-15T22:47:23.233Z,9.25
2022-11-15T22:49:52.597Z,8.25
2022-11-15T22:52:21.891Z,9.25
2022-11-15T22:54:51.172Z,12.50
2022-11-15T22:57:20.542Z,10.00
2022-11-15T22:59:49.795Z,10.50
2022-11-15T23:02:19.103Z,10.00
2022-11-15T23:04:48.362Z,8.75
2022-11-15T23:07:17.765Z,10.25
2022-11-15T23:09:51.820Z,9.50
2022-11-15T23:12:39.855Z,9.50
2022-11-15T23:15:09.359Z,10.50
2022-11-15T23:17:38.620Z,10.50
2022-11-15T23:20:36.500Z,10.25
2022-11-15T23:22:57.464Z,9.25
2022-11-15T23:25:26.748Z,8.25
2022-11-15T23:27:56.072Z,8.00
2022-11-15T23:30:43.184Z,8.00
2022-11-15T23:33:36.762Z,8.25
2022-11-15T23:36:06.245Z,7.00
2022-11-15T23:38:38.310Z,8.75
2022-11-15T23:41:08.027Z,7.75
2022-11-15T23:43:37.320Z,7.00
2022-11-15T23:46:06.623Z,7.00
2022-11-15T23:48:35.987Z,6.00
2022-11-15T23:51:05.573Z,6.50
2022-11-15T23:53:34.847Z,6.00
2022-11-15T23:56:05.087Z,7.25
2022-11-15T23:58:34.757Z,7.50
